logo
Rechercher aéroport 
image banner adimage banner adimage banner ad
image banner ad

44CA - W R Byron

Situé à Blythe, United States

ICAO - 44CA, IATA -

Données fournies par Airmate  

Information générale

Coordonnées: N33°59'23" W119°40'47"
Élévation : 420 feet MSL.
Variation magnétique : 12° East
Voir autres Aéroports à California

Données opérationnelles

Special qualification required
Heure actuelle UTC:
Heure actuelle locale:
Météo à : KOXR - Oxnard ( 49 km )
METAR: KOXR 281151Z AUTO 03003KT 8SM CLR 17/16 A2988 RMK AO2 SLP118 T01670161 10183 20167 53002
TAF: KOXR 281148Z 2812/2912 VRB03KT P6SM SKC FM281400 VRB03KT 5SM BR SKC FM281600 26008KT P6SM SKC FM282000 27012KT P6SM SKC FM290400 28006KT P6SM SKC FM290800 VRB03KT P6SM SKC
Voir NOTAMs / SUP AIP / TFR affectant cet aéroport [VIEW]
Fréquences de communication: [VIEW]

Pistes:

Identifiant RWYQFULongueur (ft)Largeur (ft)SurfaceLDA (ft)
09169760EARTH
27169760EARTH

Coordonnées de l'aéroport

Adresse: Blythe United States

Vue satellite de 44CA